Maynard, IA

4:19 PM CST on December 04, 2016 (GMT -0600)
Oelwein Municipal | | Change Station

Elev 1076 ft 42.68 °N, 91.97 °W | Updated 4 minutes ago

Overcast
Overcast
34 °F
Feels Like 27 °F
N
8
Wind Variable Wind from SW

Today
High -- | Low -- °F
--% Chance of Precip.
Yesterday
High -- | Low -- °F
Precip. -- in
Pressure 29.87 in
Visibility 7.0 miles
Clouds Scattered Clouds 400 ft
Overcast 1000 ft
Windchill 27 °F
Dew Point 32 °F
Humidity 93%
Rainfall 0.10 in
Snow Depth Not available.
7:21 AM 4:33 PM
Waxing Crescent, 26% visible
METAR KOLZ 042215Z AUTO 23007KT 7SM SCT004 OVC010 01/00 A2987 RMK AO2
Pressure 29.87 in
Visibility 7.0 miles
Clouds Scattered Clouds 400 ft
Overcast 1000 ft
Windchill 27 °F
Dew Point 32 °F
Humidity 93%
Rainfall 0.10 in
Snow Depth Not available.
7:21 AM 4:33 PM
Waxing Crescent, 26% visible
METAR KOLZ 042215Z AUTO 23007KT 7SM SCT004 OVC010 01/00 A2987 RMK AO2

10-Day Weather Forecast

Almanac

Astronomy

Dec. 04, 2016 Rise Set
Actual Time
Civil Twilight
Nautical Twilight
Astronomical Twilight
Moon
Length of Visible Light
Length of Day
Tomorrow will be .
, % of the Moon is Illuminated

Today's Extremes

State Highs State Lows

Community

WunderPhotos

Upload Photos

1,955,683 photos uploaded!

WunderBlog® & News

Nearby

Air Quality

  Air Quality AQ Index Pollutant
Not available.

Snow Depth

Station Depth Elevation

Earthquake Activity

City Distance Mag. Time & Date
Minimum magnitude displayed is 2.5.

Coastal Water Temperatures

Place Temperature

Stations

Nearby Weather Stations

Station Location Temp. Windchill Dew Point Humidity Wind Precip. Elev Updated Type
                   

Watches & Warnings

There are currently no watches in effect.